sensor_id;sensor_type;location;lat;lon;timestamp;pressure;altitude;pressure_sealevel;temperature;humidity
30339;BME280;795;49.296;11.348;2022-10-31T00:01:35;96871.09;;;9.89;100.00
30339;BME280;795;49.296;11.348;2022-10-31T00:04:05;96874.09;;;9.69;100.00
30339;BME280;795;49.296;11.348;2022-10-31T00:06:32;96879.03;;;9.81;100.00
30339;BME280;795;49.296;11.348;2022-10-31T00:09:03;96890.84;;;9.88;100.00
30339;BME280;795;49.296;11.348;2022-10-31T00:11:31;96876.06;;;9.67;100.00
30339;BME280;795;49.296;11.348;2022-10-31T00:13:59;96854.44;;;9.51;100.00
30339;BME280;795;49.296;11.348;2022-10-31T00:16:28;96878.16;;;9.90;100.00
30339;BME280;795;49.296;11.348;2022-10-31T00:19:05;96880.06;;;9.80;100.00
30339;BME280;795;49.296;11.348;2022-10-31T00:21:33;96885.50;;;9.71;100.00
30339;BME280;795;49.296;11.348;2022-10-31T00:24:02;96896.44;;;9.77;100.00
30339;BME280;795;49.296;11.348;2022-10-31T00:26:31;96881.34;;;9.94;100.00
30339;BME280;795;49.296;11.348;2022-10-31T00:28:59;96882.13;;;9.86;100.00
30339;BME280;795;49.296;11.348;2022-10-31T00:31:26;96858.34;;;9.74;100.00
30339;BME280;795;49.296;11.348;2022-10-31T00:33:53;96873.16;;;9.78;100.00
30339;BME280;795;49.296;11.348;2022-10-31T00:36:20;96877.44;;;9.71;100.00
30339;BME280;795;49.296;11.348;2022-10-31T00:38:48;96878.13;;;9.55;100.00
30339;BME280;795;49.296;11.348;2022-10-31T00:41:17;96864.94;;;9.44;100.00
30339;BME280;795;49.296;11.348;2022-10-31T00:43:44;96891.00;;;9.52;100.00
30339;BME280;795;49.296;11.348;2022-10-31T00:46:13;96884.78;;;9.51;100.00
30339;BME280;795;49.296;11.348;2022-10-31T00:48:41;96877.66;;;9.42;100.00
30339;BME280;795;49.296;11.348;2022-10-31T00:51:08;96889.84;;;9.54;100.00
30339;BME280;795;49.296;11.348;2022-10-31T00:53:35;96861.59;;;9.32;100.00
30339;BME280;795;49.296;11.348;2022-10-31T00:56:03;96881.16;;;9.43;100.00
30339;BME280;795;49.296;11.348;2022-10-31T00:58:30;96868.22;;;9.38;100.00
30339;BME280;795;49.296;11.348;2022-10-31T01:00:57;96887.91;;;9.64;100.00
30339;BME280;795;49.296;11.348;2022-10-31T01:03:30;96872.81;;;9.46;100.00
30339;BME280;795;49.296;11.348;2022-10-31T01:08:33;96897.63;;;9.48;100.00
30339;BME280;795;49.296;11.348;2022-10-31T01:11:21;96895.56;;;9.42;100.00
30339;BME280;795;49.296;11.348;2022-10-31T01:13:53;96887.25;;;9.35;100.00
30339;BME280;795;49.296;11.348;2022-10-31T01:16:26;96903.88;;;9.39;100.00
30339;BME280;795;49.296;11.348;2022-10-31T01:18:53;96884.34;;;9.28;100.00
30339;BME280;795;49.296;11.348;2022-10-31T01:21:26;96878.19;;;9.18;100.00
30339;BME280;795;49.296;11.348;2022-10-31T01:23:55;96893.69;;;9.24;100.00
30339;BME280;795;49.296;11.348;2022-10-31T01:26:31;96899.50;;;9.20;100.00
30339;BME280;795;49.296;11.348;2022-10-31T01:29:06;96898.53;;;9.11;100.00
30339;BME280;795;49.296;11.348;2022-10-31T01:31:39;96893.44;;;9.08;100.00
30339;BME280;795;49.296;11.348;2022-10-31T01:34:06;96900.00;;;8.96;100.00
30339;BME280;795;49.296;11.348;2022-10-31T01:36:37;96901.28;;;8.92;100.00
30339;BME280;795;49.296;11.348;2022-10-31T01:39:13;96891.13;;;8.96;100.00
30339;BME280;795;49.296;11.348;2022-10-31T01:41:45;96898.72;;;9.00;100.00
30339;BME280;795;49.296;11.348;2022-10-31T01:46:58;96888.66;;;9.12;100.00
30339;BME280;795;49.296;11.348;2022-10-31T01:49:43;96893.22;;;9.02;100.00
30339;BME280;795;49.296;11.348;2022-10-31T01:52:30;96871.03;;;8.82;100.00
30339;BME280;795;49.296;11.348;2022-10-31T01:55:06;96876.09;;;8.85;100.00
30339;BME280;795;49.296;11.348;2022-10-31T01:57:37;96881.28;;;8.87;100.00
30339;BME280;795;49.296;11.348;2022-10-31T02:00:10;96889.50;;;8.76;100.00
30339;BME280;795;49.296;11.348;2022-10-31T02:02:38;96866.88;;;8.60;100.00
30339;BME280;795;49.296;11.348;2022-10-31T02:05:14;96887.09;;;8.82;100.00
30339;BME280;795;49.296;11.348;2022-10-31T02:08:19;96887.66;;;8.86;100.00
30339;BME280;795;49.296;11.348;2022-10-31T02:10:47;96867.25;;;8.75;100.00
30339;BME280;795;49.296;11.348;2022-10-31T02:13:15;96858.41;;;8.65;100.00
30339;BME280;795;49.296;11.348;2022-10-31T02:15:47;96884.97;;;8.86;100.00
30339;BME280;795;49.296;11.348;2022-10-31T02:18:16;96889.47;;;8.85;100.00
30339;BME280;795;49.296;11.348;2022-10-31T02:21:19;96884.28;;;8.84;100.00
30339;BME280;795;49.296;11.348;2022-10-31T02:24:37;96892.81;;;8.97;100.00
30339;BME280;795;49.296;11.348;2022-10-31T02:28:04;96885.69;;;9.15;100.00
30339;BME280;795;49.296;11.348;2022-10-31T02:33:55;96889.84;;;9.27;100.00
30339;BME280;795;49.296;11.348;2022-10-31T02:36:57;96889.97;;;9.08;100.00
30339;BME280;795;49.296;11.348;2022-10-31T02:42:31;96884.00;;;9.14;100.00
30339;BME280;795;49.296;11.348;2022-10-31T02:45:32;96895.34;;;9.25;100.00
30339;BME280;795;49.296;11.348;2022-10-31T02:48:15;96871.22;;;9.08;100.00
30339;BME280;795;49.296;11.348;2022-10-31T02:50:56;96877.44;;;8.99;100.00
30339;BME280;795;49.296;11.348;2022-10-31T02:53:24;96869.56;;;8.97;100.00
30339;BME280;795;49.296;11.348;2022-10-31T02:56:02;96862.09;;;9.01;100.00
30339;BME280;795;49.296;11.348;2022-10-31T02:58:42;96877.66;;;9.15;100.00
30339;BME280;795;49.296;11.348;2022-10-31T03:01:57;96863.97;;;9.18;100.00
30339;BME280;795;49.296;11.348;2022-10-31T03:08:26;96883.34;;;8.65;100.00
30339;BME280;795;49.296;11.348;2022-10-31T03:11:05;96876.59;;;8.61;100.00
30339;BME280;795;49.296;11.348;2022-10-31T03:13:59;96863.28;;;8.42;100.00
30339;BME280;795;49.296;11.348;2022-10-31T03:16:53;96879.34;;;8.42;100.00
30339;BME280;795;49.296;11.348;2022-10-31T03:19:52;96865.56;;;8.28;100.00
30339;BME280;795;49.296;11.348;2022-10-31T03:22:28;96856.94;;;8.24;100.00
30339;BME280;795;49.296;11.348;2022-10-31T03:24:58;96863.84;;;8.36;100.00
30339;BME280;795;49.296;11.348;2022-10-31T03:27:34;96870.97;;;8.64;100.00
30339;BME280;795;49.296;11.348;2022-10-31T03:30:06;96877.91;;;8.85;100.00
30339;BME280;795;49.296;11.348;2022-10-31T03:32:52;96872.13;;;8.89;100.00
30339;BME280;795;49.296;11.348;2022-10-31T03:35:24;96866.34;;;8.84;100.00
30339;BME280;795;49.296;11.348;2022-10-31T03:37:56;96861.16;;;8.83;100.00
30339;BME280;795;49.296;11.348;2022-10-31T03:40:38;96867.97;;;9.04;100.00
30339;BME280;795;49.296;11.348;2022-10-31T03:43:25;96865.84;;;9.08;100.00
30339;BME280;795;49.296;11.348;2022-10-31T03:45:54;96877.84;;;9.04;100.00
30339;BME280;795;49.296;11.348;2022-10-31T03:48:22;96857.84;;;8.71;100.00
30339;BME280;795;49.296;11.348;2022-10-31T03:51:28;96886.16;;;8.74;100.00
30339;BME280;795;49.296;11.348;2022-10-31T03:54:12;96863.97;;;8.44;100.00
30339;BME280;795;49.296;11.348;2022-10-31T03:57:22;96880.47;;;8.40;100.00
30339;BME280;795;49.296;11.348;2022-10-31T04:00:04;96852.19;;;8.18;100.00
30339;BME280;795;49.296;11.348;2022-10-31T04:02:38;96878.38;;;8.05;100.00
30339;BME280;795;49.296;11.348;2022-10-31T04:05:09;96869.34;;;8.25;100.00
30339;BME280;795;49.296;11.348;2022-10-31T04:07:45;96858.06;;;8.22;100.00
30339;BME280;795;49.296;11.348;2022-10-31T04:10:16;96869.06;;;8.09;100.00
30339;BME280;795;49.296;11.348;2022-10-31T04:12:55;96861.47;;;8.04;100.00
30339;BME280;795;49.296;11.348;2022-10-31T04:15:28;96875.94;;;8.12;100.00
30339;BME280;795;49.296;11.348;2022-10-31T04:18:00;96855.31;;;8.04;100.00
30339;BME280;795;49.296;11.348;2022-10-31T04:20:40;96870.22;;;8.16;100.00
30339;BME280;795;49.296;11.348;2022-10-31T04:23:24;96866.53;;;8.17;100.00
30339;BME280;795;49.296;11.348;2022-10-31T04:25:52;96851.47;;;8.07;100.00
30339;BME280;795;49.296;11.348;2022-10-31T04:28:19;96865.25;;;8.12;100.00
30339;BME280;795;49.296;11.348;2022-10-31T04:30:46;96873.84;;;8.15;100.00
30339;BME280;795;49.296;11.348;2022-10-31T04:33:13;96854.47;;;7.94;100.00
30339;BME280;795;49.296;11.348;2022-10-31T04:35:40;96861.38;;;7.87;100.00
30339;BME280;795;49.296;11.348;2022-10-31T04:38:07;96871.75;;;7.71;100.00
30339;BME280;795;49.296;11.348;2022-10-31T04:40:34;96855.44;;;7.64;100.00
30339;BME280;795;49.296;11.348;2022-10-31T04:43:01;96867.09;;;7.73;100.00
30339;BME280;795;49.296;11.348;2022-10-31T04:45:29;96877.25;;;7.88;100.00
30339;BME280;795;49.296;11.348;2022-10-31T04:47:56;96864.59;;;7.90;100.00
30339;BME280;795;49.296;11.348;2022-10-31T04:50:23;96872.88;;;7.97;100.00
30339;BME280;795;49.296;11.348;2022-10-31T04:52:50;96843.91;;;7.83;100.00
30339;BME280;795;49.296;11.348;2022-10-31T04:55:17;96848.00;;;7.87;100.00
30339;BME280;795;49.296;11.348;2022-10-31T04:57:48;96849.38;;;7.91;100.00
30339;BME280;795;49.296;11.348;2022-10-31T05:00:20;96866.69;;;7.96;100.00
30339;BME280;795;49.296;11.348;2022-10-31T05:02:57;96854.47;;;7.75;100.00
30339;BME280;795;49.296;11.348;2022-10-31T05:05:30;96859.94;;;7.64;100.00
30339;BME280;795;49.296;11.348;2022-10-31T05:07:58;96820.81;;;7.34;100.00
30339;BME280;795;49.296;11.348;2022-10-31T05:10:29;96858.28;;;7.63;100.00
30339;BME280;795;49.296;11.348;2022-10-31T05:13:00;96855.03;;;7.69;100.00
30339;BME280;795;49.296;11.348;2022-10-31T05:15:29;96856.41;;;7.63;100.00
30339;BME280;795;49.296;11.348;2022-10-31T05:17:57;96865.97;;;7.47;100.00
30339;BME280;795;49.296;11.348;2022-10-31T05:20:28;96857.97;;;7.56;100.00
30339;BME280;795;49.296;11.348;2022-10-31T05:22:58;96855.16;;;7.58;100.00
30339;BME280;795;49.296;11.348;2022-10-31T05:25:28;96848.28;;;7.55;100.00
30339;BME280;795;49.296;11.348;2022-10-31T05:27:57;96863.72;;;7.52;100.00
30339;BME280;795;49.296;11.348;2022-10-31T05:30:34;96844.03;;;7.33;100.00
30339;BME280;795;49.296;11.348;2022-10-31T05:33:01;96853.88;;;7.33;100.00
30339;BME280;795;49.296;11.348;2022-10-31T05:35:32;96852.88;;;7.44;100.00
30339;BME280;795;49.296;11.348;2022-10-31T05:38:00;96852.78;;;7.55;100.00
30339;BME280;795;49.296;11.348;2022-10-31T05:40:27;96841.38;;;7.53;100.00
30339;BME280;795;49.296;11.348;2022-10-31T05:42:56;96842.50;;;7.60;100.00
30339;BME280;795;49.296;11.348;2022-10-31T05:45:25;96850.94;;;7.55;100.00
30339;BME280;795;49.296;11.348;2022-10-31T05:47:58;96855.72;;;7.42;100.00
30339;BME280;795;49.296;11.348;2022-10-31T05:50:30;96836.97;;;7.23;100.00
30339;BME280;795;49.296;11.348;2022-10-31T05:53:04;96851.06;;;7.44;100.00
30339;BME280;795;49.296;11.348;2022-10-31T05:55:32;96843.06;;;7.54;100.00
30339;BME280;795;49.296;11.348;2022-10-31T05:57:58;96821.25;;;7.49;100.00
30339;BME280;795;49.296;11.348;2022-10-31T06:00:27;96846.56;;;7.54;100.00
30339;BME280;795;49.296;11.348;2022-10-31T06:03:05;96855.72;;;7.61;100.00
30339;BME280;795;49.296;11.348;2022-10-31T06:05:32;96857.69;;;7.59;100.00
30339;BME280;795;49.296;11.348;2022-10-31T06:08:00;96860.09;;;7.62;100.00
30339;BME280;795;49.296;11.348;2022-10-31T06:10:28;96854.31;;;7.67;100.00
30339;BME280;795;49.296;11.348;2022-10-31T06:12:55;96859.81;;;7.75;100.00
30339;BME280;795;49.296;11.348;2022-10-31T06:15:22;96876.41;;;7.88;100.00
30339;BME280;795;49.296;11.348;2022-10-31T06:18:05;96875.84;;;7.84;100.00
30339;BME280;795;49.296;11.348;2022-10-31T06:20:34;96865.72;;;7.69;100.00
30339;BME280;795;49.296;11.348;2022-10-31T06:23:02;96871.31;;;7.66;100.00
30339;BME280;795;49.296;11.348;2022-10-31T06:25:30;96866.56;;;7.69;100.00
30339;BME280;795;49.296;11.348;2022-10-31T06:27:57;96858.66;;;7.68;100.00
30339;BME280;795;49.296;11.348;2022-10-31T06:30:24;96879.06;;;7.78;100.00
30339;BME280;795;49.296;11.348;2022-10-31T06:32:51;96859.50;;;7.78;100.00
30339;BME280;795;49.296;11.348;2022-10-31T06:35:18;96888.78;;;8.08;100.00
30339;BME280;795;49.296;11.348;2022-10-31T06:37:53;96881.31;;;8.31;100.00
30339;BME280;795;49.296;11.348;2022-10-31T06:40:21;96888.97;;;8.62;100.00
30339;BME280;795;49.296;11.348;2022-10-31T06:43:00;96860.38;;;8.63;100.00
30339;BME280;795;49.296;11.348;2022-10-31T06:45:27;96891.34;;;9.12;100.00
30339;BME280;795;49.296;11.348;2022-10-31T06:47:56;96890.50;;;9.39;100.00
30339;BME280;795;49.296;11.348;2022-10-31T06:50:42;96891.09;;;9.95;100.00
30339;BME280;795;49.296;11.348;2022-10-31T06:53:10;96911.53;;;10.49;100.00
30339;BME280;795;49.296;11.348;2022-10-31T06:55:37;96902.75;;;11.24;100.00
30339;BME280;795;49.296;11.348;2022-10-31T06:58:04;96919.16;;;11.47;100.00
30339;BME280;795;49.296;11.348;2022-10-31T07:00:32;96917.69;;;11.52;100.00
30339;BME280;795;49.296;11.348;2022-10-31T07:03:09;96910.59;;;11.51;100.00
30339;BME280;795;49.296;11.348;2022-10-31T07:05:36;96901.72;;;11.59;100.00
30339;BME280;795;49.296;11.348;2022-10-31T07:08:08;96913.94;;;11.87;100.00
30339;BME280;795;49.296;11.348;2022-10-31T07:10:38;96905.91;;;12.35;100.00
30339;BME280;795;49.296;11.348;2022-10-31T07:13:13;96916.16;;;13.04;100.00
30339;BME280;795;49.296;11.348;2022-10-31T07:15:43;96907.78;;;12.59;100.00
30339;BME280;795;49.296;11.348;2022-10-31T07:18:12;96913.69;;;12.79;100.00
30339;BME280;795;49.296;11.348;2022-10-31T07:20:39;96914.75;;;13.32;100.00
30339;BME280;795;49.296;11.348;2022-10-31T07:23:08;96914.69;;;13.49;100.00
30339;BME280;795;49.296;11.348;2022-10-31T07:25:35;96905.47;;;13.74;100.00
30339;BME280;795;49.296;11.348;2022-10-31T07:28:02;96905.94;;;14.08;100.00
30339;BME280;795;49.296;11.348;2022-10-31T07:30:30;96895.84;;;14.33;100.00
30339;BME280;795;49.296;11.348;2022-10-31T07:32:57;96870.13;;;14.59;100.00
30339;BME280;795;49.296;11.348;2022-10-31T07:35:28;96882.13;;;14.94;100.00
30339;BME280;795;49.296;11.348;2022-10-31T07:37:56;96874.22;;;15.37;100.00
30339;BME280;795;49.296;11.348;2022-10-31T07:40:25;96872.47;;;15.58;100.00
30339;BME280;795;49.296;11.348;2022-10-31T07:42:53;96854.72;;;15.91;100.00
30339;BME280;795;49.296;11.348;2022-10-31T07:45:21;96851.22;;;16.33;100.00
30339;BME280;795;49.296;11.348;2022-10-31T07:47:52;96848.41;;;16.90;100.00
30339;BME280;795;49.296;11.348;2022-10-31T07:50:29;96840.81;;;17.41;100.00
30339;BME280;795;49.296;11.348;2022-10-31T07:53:04;96849.84;;;18.02;100.00
30339;BME280;795;49.296;11.348;2022-10-31T07:55:32;96821.09;;;18.40;100.00
30339;BME280;795;49.296;11.348;2022-10-31T07:58:03;96836.78;;;18.97;100.00
30339;BME280;795;49.296;11.348;2022-10-31T08:00:33;96831.72;;;19.47;100.00
30339;BME280;795;49.296;11.348;2022-10-31T08:03:14;96827.97;;;19.92;100.00
30339;BME280;795;49.296;11.348;2022-10-31T08:05:42;96807.31;;;20.47;100.00
30339;BME280;795;49.296;11.348;2022-10-31T08:08:13;96820.56;;;20.93;100.00
30339;BME280;795;49.296;11.348;2022-10-31T08:10:40;96822.06;;;21.38;100.00
30339;BME280;795;49.296;11.348;2022-10-31T08:13:13;96809.34;;;21.80;100.00
30339;BME280;795;49.296;11.348;2022-10-31T08:15:41;96809.09;;;22.18;100.00
30339;BME280;795;49.296;11.348;2022-10-31T08:18:14;96815.66;;;22.58;100.00
30339;BME280;795;49.296;11.348;2022-10-31T08:20:43;96806.72;;;22.51;96.82
30339;BME280;795;49.296;11.348;2022-10-31T08:23:12;96813.34;;;22.85;96.23
30339;BME280;795;49.296;11.348;2022-10-31T08:25:39;96803.25;;;22.85;91.24
30339;BME280;795;49.296;11.348;2022-10-31T08:28:10;96820.75;;;23.31;89.24
30339;BME280;795;49.296;11.348;2022-10-31T08:30:39;96806.22;;;23.07;85.20
30339;BME280;795;49.296;11.348;2022-10-31T08:33:15;96819.34;;;22.93;86.57
30339;BME280;795;49.296;11.348;2022-10-31T08:35:44;96804.31;;;23.31;85.54
30339;BME280;795;49.296;11.348;2022-10-31T08:38:12;96817.03;;;23.71;81.64
30339;BME280;795;49.296;11.348;2022-10-31T08:40:40;96821.72;;;23.48;72.42
30339;BME280;795;49.296;11.348;2022-10-31T08:43:18;96814.59;;;23.35;67.36
30339;BME280;795;49.296;11.348;2022-10-31T08:45:49;96825.03;;;23.03;70.44
30339;BME280;795;49.296;11.348;2022-10-31T08:48:17;96797.75;;;22.32;70.39
30339;BME280;795;49.296;11.348;2022-10-31T08:50:45;96776.75;;;22.15;71.42
30339;BME280;795;49.296;11.348;2022-10-31T08:53:16;96788.06;;;22.60;65.61
30339;BME280;795;49.296;11.348;2022-10-31T08:55:46;96801.09;;;22.46;67.58
30339;BME280;795;49.296;11.348;2022-10-31T08:58:19;96811.84;;;22.89;66.45
30339;BME280;795;49.296;11.348;2022-10-31T09:03:38;96801.22;;;23.16;64.44
30339;BME280;795;49.296;11.348;2022-10-31T09:06:06;96787.88;;;22.73;66.49
30339;BME280;795;49.296;11.348;2022-10-31T09:08:36;96804.22;;;23.02;65.57
30339;BME280;795;49.296;11.348;2022-10-31T09:11:04;96794.56;;;23.11;65.34
30339;BME280;795;49.296;11.348;2022-10-31T09:13:33;96771.69;;;23.29;62.02
30339;BME280;795;49.296;11.348;2022-10-31T09:16:07;96794.19;;;23.31;62.01
30339;BME280;795;49.296;11.348;2022-10-31T09:18:34;96792.66;;;23.24;62.11
30339;BME280;795;49.296;11.348;2022-10-31T09:21:01;96769.31;;;23.09;61.50
30339;BME280;795;49.296;11.348;2022-10-31T09:23:28;96777.06;;;23.24;60.44
30339;BME280;795;49.296;11.348;2022-10-31T09:26:00;96796.72;;;23.56;58.94
30339;BME280;795;49.296;11.348;2022-10-31T09:28:27;96769.09;;;23.23;57.75
30339;BME280;795;49.296;11.348;2022-10-31T09:30:54;96794.06;;;22.91;59.74
30339;BME280;795;49.296;11.348;2022-10-31T09:33:21;96780.75;;;22.42;62.30
30339;BME280;795;49.296;11.348;2022-10-31T09:35:48;96783.69;;;22.82;60.26
30339;BME280;795;49.296;11.348;2022-10-31T09:38:21;96791.81;;;23.58;58.70
30339;BME280;795;49.296;11.348;2022-10-31T09:44:11;96786.44;;;24.59;52.41
30339;BME280;795;49.296;11.348;2022-10-31T09:47:05;96783.81;;;24.97;50.16
30339;BME280;795;49.296;11.348;2022-10-31T09:50:02;96784.75;;;25.41;47.90
30339;BME280;795;49.296;11.348;2022-10-31T09:52:38;96762.44;;;26.19;45.16
30339;BME280;795;49.296;11.348;2022-10-31T09:55:22;96788.88;;;26.74;45.41
30339;BME280;795;49.296;11.348;2022-10-31T09:57:52;96783.53;;;27.26;43.70
30339;BME280;795;49.296;11.348;2022-10-31T10:00:22;96783.00;;;28.27;42.92
30339;BME280;795;49.296;11.348;2022-10-31T10:03:13;96780.25;;;28.27;42.42
30339;BME280;795;49.296;11.348;2022-10-31T10:08:32;96782.88;;;29.50;38.55
30339;BME280;795;49.296;11.348;2022-10-31T10:18:06;96774.31;;;28.91;38.58
30339;BME280;795;49.296;11.348;2022-10-31T10:30:20;96765.63;;;28.32;38.95
30339;BME280;795;49.296;11.348;2022-10-31T10:32:53;96760.59;;;27.57;40.02
30339;BME280;795;49.296;11.348;2022-10-31T10:35:33;96761.97;;;27.54;40.23
30339;BME280;795;49.296;11.348;2022-10-31T10:38:39;96748.06;;;26.97;40.25
30339;BME280;795;49.296;11.348;2022-10-31T10:41:23;96750.25;;;26.95;40.03
30339;BME280;795;49.296;11.348;2022-10-31T10:43:52;96749.72;;;27.04;39.72
30339;BME280;795;49.296;11.348;2022-10-31T10:46:56;96745.72;;;26.26;40.32
30339;BME280;795;49.296;11.348;2022-10-31T10:49:52;96741.56;;;26.23;40.88
30339;BME280;795;49.296;11.348;2022-10-31T10:52:56;96730.56;;;26.02;41.77
30339;BME280;795;49.296;11.348;2022-10-31T10:55:52;96750.53;;;26.14;42.46
30339;BME280;795;49.296;11.348;2022-10-31T10:58:23;96745.63;;;26.74;41.92
30339;BME280;795;49.296;11.348;2022-10-31T11:00:54;96736.34;;;26.80;40.79
30339;BME280;795;49.296;11.348;2022-10-31T11:03:22;96734.75;;;26.89;41.86
30339;BME280;795;49.296;11.348;2022-10-31T11:05:57;96720.78;;;27.01;41.00
30339;BME280;795;49.296;11.348;2022-10-31T11:08:36;96737.50;;;26.89;41.62
30339;BME280;795;49.296;11.348;2022-10-31T11:11:29;96704.44;;;26.89;40.42
30339;BME280;795;49.296;11.348;2022-10-31T11:14:15;96735.88;;;26.62;41.56
30339;BME280;795;49.296;11.348;2022-10-31T11:16:50;96715.25;;;26.32;42.52
30339;BME280;795;49.296;11.348;2022-10-31T11:19:26;96716.31;;;26.31;42.42
30339;BME280;795;49.296;11.348;2022-10-31T11:21:54;96717.50;;;26.41;42.71
30339;BME280;795;49.296;11.348;2022-10-31T11:24:41;96695.34;;;26.25;41.97
30339;BME280;795;49.296;11.348;2022-10-31T11:27:24;96717.91;;;26.54;41.66
30339;BME280;795;49.296;11.348;2022-10-31T11:29:52;96711.88;;;26.30;41.93
30339;BME280;795;49.296;11.348;2022-10-31T11:32:27;96709.31;;;26.19;42.66
30339;BME280;795;49.296;11.348;2022-10-31T11:35:03;96705.22;;;26.00;43.01
30339;BME280;795;49.296;11.348;2022-10-31T11:37:44;96700.72;;;25.89;44.88
30339;BME280;795;49.296;11.348;2022-10-31T11:40:26;96695.38;;;26.04;48.87
30339;BME280;795;49.296;11.348;2022-10-31T11:42:58;96694.88;;;25.85;49.33
30339;BME280;795;49.296;11.348;2022-10-31T11:45:32;96679.00;;;25.92;49.34
30339;BME280;795;49.296;11.348;2022-10-31T11:48:02;96680.06;;;25.86;49.34
30339;BME280;795;49.296;11.348;2022-10-31T11:50:48;96665.53;;;26.17;49.10
30339;BME280;795;49.296;11.348;2022-10-31T11:53:22;96651.72;;;26.12;49.78
30339;BME280;795;49.296;11.348;2022-10-31T11:56:20;96669.91;;;26.45;48.74
30339;BME280;795;49.296;11.348;2022-10-31T11:59:17;96680.69;;;26.78;47.88
30339;BME280;795;49.296;11.348;2022-10-31T12:01:51;96654.25;;;26.51;48.55
30339;BME280;795;49.296;11.348;2022-10-31T12:04:35;96675.31;;;27.04;48.70
30339;BME280;795;49.296;11.348;2022-10-31T12:07:04;96662.81;;;27.33;48.10
30339;BME280;795;49.296;11.348;2022-10-31T12:09:36;96667.75;;;27.26;44.52
30339;BME280;795;49.296;11.348;2022-10-31T12:12:57;96654.53;;;27.33;47.46
30339;BME280;795;49.296;11.348;2022-10-31T12:15:36;96656.38;;;27.12;40.46
30339;BME280;795;49.296;11.348;2022-10-31T12:18:39;96654.78;;;27.26;40.38
30339;BME280;795;49.296;11.348;2022-10-31T12:21:54;96655.88;;;26.78;39.75
30339;BME280;795;49.296;11.348;2022-10-31T12:25:10;96652.44;;;26.98;39.23
30339;BME280;795;49.296;11.348;2022-10-31T12:28:19;96642.69;;;26.17;40.44
30339;BME280;795;49.296;11.348;2022-10-31T12:40:50;96635.94;;;25.11;43.16
30339;BME280;795;49.296;11.348;2022-10-31T12:53:07;96625.63;;;24.30;43.89
30339;BME280;795;49.296;11.348;2022-10-31T12:58:55;96609.56;;;23.32;46.73
30339;BME280;795;49.296;11.348;2022-10-31T13:01:35;96613.97;;;22.93;46.99
30339;BME280;795;49.296;11.348;2022-10-31T13:04:37;96607.69;;;22.81;50.33
30339;BME280;795;49.296;11.348;2022-10-31T13:07:17;96602.78;;;22.60;50.35
30339;BME280;795;49.296;11.348;2022-10-31T13:10:01;96590.44;;;22.46;52.83
30339;BME280;795;49.296;11.348;2022-10-31T13:12:34;96559.16;;;22.19;56.52
30339;BME280;795;49.296;11.348;2022-10-31T13:15:18;96590.31;;;22.06;57.68
30339;BME280;795;49.296;11.348;2022-10-31T13:18:00;96588.63;;;21.94;59.13
30339;BME280;795;49.296;11.348;2022-10-31T13:20:45;96591.69;;;21.86;61.34
30339;BME280;795;49.296;11.348;2022-10-31T13:23:37;96568.53;;;21.47;62.41
30339;BME280;795;49.296;11.348;2022-10-31T13:26:47;96561.47;;;21.28;63.26
30339;BME280;795;49.296;11.348;2022-10-31T13:30:13;96586.28;;;21.26;64.53
30339;BME280;795;49.296;11.348;2022-10-31T13:43:46;96557.59;;;20.69;66.37
30339;BME280;795;49.296;11.348;2022-10-31T13:45:52;96572.41;;;20.91;64.65
30339;BME280;795;49.296;11.348;2022-10-31T13:48:41;96545.63;;;20.70;64.69
30339;BME280;795;49.296;11.348;2022-10-31T13:51:11;96559.56;;;20.80;63.39
30339;BME280;795;49.296;11.348;2022-10-31T13:53:56;96552.78;;;21.19;63.63
30339;BME280;795;49.296;11.348;2022-10-31T13:56:35;96545.59;;;22.01;59.09
30339;BME280;795;49.296;11.348;2022-10-31T14:01:50;96554.69;;;23.72;52.91
30339;BME280;795;49.296;11.348;2022-10-31T14:04:51;96526.72;;;24.58;51.16
30339;BME280;795;49.296;11.348;2022-10-31T14:07:24;96557.00;;;25.50;47.92
30339;BME280;795;49.296;11.348;2022-10-31T14:12:48;96539.63;;;26.03;46.03
30339;BME280;795;49.296;11.348;2022-10-31T14:15:26;96541.13;;;26.57;44.92
30339;BME280;795;49.296;11.348;2022-10-31T14:18:04;96529.25;;;25.51;45.87
30339;BME280;795;49.296;11.348;2022-10-31T14:20:43;96554.81;;;24.10;49.70
30339;BME280;795;49.296;11.348;2022-10-31T14:31:54;96508.88;;;20.55;61.99
30339;BME280;795;49.296;11.348;2022-10-31T14:34:34;96530.72;;;20.36;66.57
30339;BME280;795;49.296;11.348;2022-10-31T14:37:38;96510.81;;;19.93;67.93
30339;BME280;795;49.296;11.348;2022-10-31T14:44:43;96518.16;;;19.43;71.89
30339;BME280;795;49.296;11.348;2022-10-31T14:47:36;96506.16;;;19.19;73.06
30339;BME280;795;49.296;11.348;2022-10-31T14:50:47;96503.50;;;19.06;75.32
30339;BME280;795;49.296;11.348;2022-10-31T14:53:39;96490.88;;;18.87;76.31
30339;BME280;795;49.296;11.348;2022-10-31T14:56:11;96497.63;;;18.78;76.83
30339;BME280;795;49.296;11.348;2022-10-31T14:58:46;96491.38;;;18.71;77.39
30339;BME280;795;49.296;11.348;2022-10-31T15:01:32;96468.03;;;18.57;78.59
30339;BME280;795;49.296;11.348;2022-10-31T15:04:27;96483.09;;;18.53;79.09
30339;BME280;795;49.296;11.348;2022-10-31T15:07:30;96476.69;;;18.34;79.28
30339;BME280;795;49.296;11.348;2022-10-31T15:10:22;96484.06;;;18.21;79.73
30339;BME280;795;49.296;11.348;2022-10-31T15:12:49;96490.34;;;18.15;79.33
30339;BME280;795;49.296;11.348;2022-10-31T15:15:26;96480.34;;;18.02;80.17
30339;BME280;795;49.296;11.348;2022-10-31T15:17:59;96471.84;;;17.92;79.39
30339;BME280;795;49.296;11.348;2022-10-31T15:20:38;96455.34;;;17.74;79.38
30339;BME280;795;49.296;11.348;2022-10-31T15:23:28;96469.13;;;17.79;80.39
30339;BME280;795;49.296;11.348;2022-10-31T15:26:05;96451.63;;;17.62;81.82
30339;BME280;795;49.296;11.348;2022-10-31T15:28:32;96450.34;;;17.77;82.15
30339;BME280;795;49.296;11.348;2022-10-31T15:31:02;96430.88;;;17.80;82.75